Latest Coastal Weather Observations for Wynyard

IDV60701

Issued at 7:52 pm EST Monday 4 May 2026 (issued every 10 minutes, with the page automatically refreshed every 10 minutes)

About coastal observations | Map of coastal stations | Coastal observations for VIC | Marine services | Other Formats
Station Details ID: 091107 Name: WYNYARD AIRPORT Lat: -41.00 Lon: 145.73 Height: 12.0 m
Data from the previous 72 hours. | See also: Recent months at Wynyard
Date/Time
EST
Wind Sea
Height
m
Swell Vis
km
Cloud Weather Temp
°C
Press
MSL
hPa
Rain since
9am
mm
Dir  Spd
kts
Gust
kts
Height
m
Period
s
Dir
04/07:30pm N 10 16 - - - - 10 Partly cloudy - 16.4 1006.8 0.0
04/07:00pm N 11 17 - - - - 10 Partly cloudy - 16.5 1007.0 0.0
04/06:30pm N 12 17 - - - - 10 Partly cloudy - 16.4 1006.9 0.0
04/06:00pm N 11 18 - - - - 10 Cloudy - 16.2 1006.9 0.0
04/05:30pm N 14 21 - - - - 10 Partly cloudy - 16.2 1006.9 0.0
04/05:00pm N 12 19 - - - - 10 Mostly clear - 15.9 1006.9 0.0
04/04:30pm NNW 12 18 - - - - 10 Mostly clear - 15.9 1006.9 0.0
04/04:00pm NNW 14 22 - - - - 10 Partly cloudy - 15.5 1006.9 0.0
04/03:30pm N 13 21 - - - - 10 Partly cloudy - 16.4 1007.0 0.0
04/03:00pm NNW 14 20 - - - - 10 Cloudy - 16.4 1007.0 0.0
04/02:30pm N 13 18 - - - - 10 Partly cloudy - 16.2 1007.1 0.0
04/02:00pm N 13 19 - - - - 10 Partly cloudy - 16.8 1007.3 0.0
04/01:30pm N 15 23 - - - - 10 Partly cloudy - 17.3 1007.6 0.0
04/01:00pm N 13 19 - - - - 10 Partly cloudy - 17.1 1007.8 0.0
04/12:30pm N 12 18 - - - - 10 Partly cloudy - 16.7 1008.2 0.0
04/12:00pm N 11 16 - - - - 10 Mostly cloudy - 16.8 1008.7 0.0
04/11:30am N 11 17 - - - - 10 Mostly clear - 17.3 1008.9 0.0
04/11:00am N 13 20 - - - - 10 Mostly clear - 16.9 1009.2 0.0
04/10:30am N 11 16 - - - - 10 Partly cloudy - 16.9 1009.4 0.0
04/10:00am N 10 15 - - - - 10 Mostly clear - 16.4 1009.4 0.0
04/09:30am N 9 14 - - - - 10 Cloudy - 15.8 1009.5 0.0
04/09:00am NW 6 14 - - - - 10 Cloudy - 15.3 1009.5 14.0
04/08:30am WSW 1 4 - - - - 10 Cloudy - 12.6 1009.5 14.0
04/08:00am WSW 3 5 - - - - 10 Partly cloudy - 10.9 1009.4 14.0
04/07:44am SSW 2 5 - - - - 10 Mostly clear - 9.8 1009.4 14.0
04/07:30am SW 3 4 - - - - 2 Partly cloudy - 9.4 1009.3 14.0
04/07:16am W 4 5 - - - - 4 Partly cloudy - 9.1 1009.3 14.0
04/07:00am W 4 5 - - - - 10 Partly cloudy - 9.9 1009.2 14.0
04/06:30am WSW 3 4 - - - - 10 Mostly clear - 10.4 1009.1 14.0
04/06:00am W 3 4 - - - - 10 Cloudy - 10.3 1009.4 14.0
04/05:30am W 4 5 - - - - 10 Mostly clear - 10.3 1009.3 14.0
04/05:00am WNW 4 6 - - - - 10 Mostly clear - 9.8 1009.1 14.0
04/04:30am WNW 5 6 - - - - 10 Mostly clear - 10.6 1009.3 13.6
04/04:00am W 5 6 - - - - 10 Mostly clear - 10.6 1009.4 13.6
04/03:34am WSW 5 8 - - - - 10 Partly cloudy - 10.4 1009.6 13.6
04/03:30am SW 5 8 - - - - 10 Partly cloudy - 10.6 1009.6 13.6
04/03:10am WNW 5 11 - - - - 10 Partly cloudy - 11.0 1009.8 13.6
04/03:00am W 5 9 - - - - 10 Cloudy - 10.9 1010.0 13.6
04/02:30am W 4 5 - - - - 10 Partly cloudy - 10.4 1010.0 13.6
04/02:00am SSW 6 7 - - - - 10 Partly cloudy - 10.5 1010.2 13.6
04/01:54am SW 4 6 - - - - 10 Partly cloudy - 10.1 1010.4 13.6
04/01:30am W 3 4 - - - - 9 Partly cloudy - 9.8 1010.5 13.6
04/01:29am W 3 4 - - - - 8 Partly cloudy - 9.8 1010.5 13.6
04/01:26am W 4 4 - - - - 9 Partly cloudy - 9.7 1010.5 13.6
04/01:13am W 4 5 - - - - 5 Partly cloudy - 9.6 1010.4 13.6
04/01:00am WSW 4 5 - - - - 10 Mostly clear - 9.6 1010.3 13.6
04/12:56am WSW 5 5 - - - - 10 Mostly clear - 9.3 1010.4 13.6
04/12:31am WNW 3 5 - - - - 5 Partly cloudy - 9.4 1010.2 13.6
04/12:30am WNW 3 5 - - - - 6 Mostly clear - 9.4 1010.2 13.6
04/12:25am WNW 1 4 - - - - 10 - - 10.4 1010.4 13.6
04/12:08am CALM 0 0 - - - - 1 Mostly clear - 10.2 1010.6 13.6
04/12:00am CALM 0 0 - - - - 0.5 Cloudy - 10.1 1010.0 13.6
 
Date/Time
EST
Wind Sea
Height
m
Swell Vis
km
Cloud Weather Temp
°C
Press
MSL
hPa
Rain since
9am
mm
Dir  Spd
kts
Gust
kts
Height
m
Period
s
Dir
03/11:47pm SSW 3 4 - - - - 0.9 Partly cloudy - 9.9 1010.2 13.6
03/11:39pm W 3 4 - - - - 5 - - 9.9 1010.3 13.6
03/11:30pm W 4 5 - - - - 10 - - 10.7 1010.8 13.6
03/11:29pm W 4 5 - - - - 10 - - 10.7 1010.8 13.6
03/11:04pm W 6 7 - - - - 5 - - 10.6 1010.6 13.6
03/11:00pm W 6 7 - - - - 10 - - 10.6 1010.6 13.6
03/10:51pm WNW 7 8 - - - - 9 - - 11.0 1010.9 13.6
03/10:31pm WNW 4 6 - - - - 1 Mostly clear - 9.9 1011.0 13.6
03/10:30pm WNW 5 6 - - - - 0.9 Mostly clear - 9.8 1011.0 13.6
03/10:27pm WNW 5 6 - - - - 0.9 Mostly clear - 9.8 1010.9 13.6
03/10:15pm W 5 6 - - - - 1 Mostly clear - 10.9 1011.0 13.6
03/10:00pm SW 4 5 - - - - 0.5 - - 10.9 1011.0 13.6
03/09:55pm WSW 4 5 - - - - 0.9 - - 10.7 1010.9 13.6
03/09:41pm WNW 4 5 - - - - 1 - - 10.6 1011.1 13.6
03/09:30pm W 5 6 - - - - 0.5 - - 10.4 1011.0 13.6
03/09:07pm WNW 5 6 - - - - 0.9 Mostly clear - 10.9 1011.5 13.6
03/09:04pm WNW 5 6 - - - - 1 Mostly clear - 11.0 1011.3 13.6
03/09:00pm WNW 5 5 - - - - 0.4 Mostly clear - 11.3 1011.0 13.6
03/08:43pm W 5 7 - - - - 0.8 - - 10.6 1010.7 13.6
03/08:30pm WNW 5 7 - - - - 5 - - 11.8 1010.7 13.6
03/08:26pm W 6 7 - - - - 1 - - 11.4 1010.6 13.6
03/08:00pm WNW 5 5 - - - - 0.2 - - 10.8 1010.1 13.6
03/07:53pm WNW 4 5 - - - - 0.9 - - 11.7 1010.0 13.6
03/07:51pm WNW 4 4 - - - - 2 - - 11.9 1010.0 13.6
03/07:30pm CALM 0 3 - - - - 10 - - 14.0 1010.0 13.6
03/07:00pm WNW 7 9 - - - - 10 Mostly clear - 15.2 1009.8 13.6
03/06:48pm NNW 7 10 - - - - 10 Partly cloudy - 16.0 1009.9 13.6
03/06:33pm NNE 6 8 - - - - 10 Partly cloudy - 16.1 1009.4 13.6
03/06:30pm NNE 6 8 - - - - 10 Partly cloudy - 16.2 1009.4 13.6
03/06:06pm NE 5 7 - - - - 10 Partly cloudy - 16.1 1009.4 13.6
03/06:00pm ENE 5 7 - - - - 10 Cloudy - 16.2 1009.3 13.6
03/05:30pm NNE 8 10 - - - - 10 Partly cloudy - 16.3 1009.1 13.6
03/05:15pm NNE 9 13 - - - - 10 Partly cloudy - 16.3 1009.0 13.6
03/05:13pm NNE 9 13 - - - - 10 Partly cloudy - 16.3 1009.0 13.6
03/05:00pm NNE 10 13 - - - - 10 Partly cloudy - 16.5 1009.1 13.6
03/04:59pm NNE 10 13 - - - - 9 Partly cloudy - 16.5 1009.1 13.6
03/04:48pm N 11 18 - - - - 5 Partly cloudy - 16.5 1009.2 13.4
03/04:36pm N 10 18 - - - - 6 Partly cloudy - 16.5 1009.3 13.0
03/04:30pm N 8 13 - - - - 6 Partly cloudy - 16.5 1009.3 12.8
03/04:11pm NNE 9 12 - - - - 8 Partly cloudy - 16.5 1009.4 12.2
03/04:00pm NNE 8 11 - - - - 5 Partly cloudy - 16.5 1009.4 11.8
03/03:53pm NNE 7 12 - - - - 5 Partly cloudy - 16.5 1009.5 11.2
03/03:45pm NNE 9 13 - - - - 10 Mostly clear - 16.5 1009.5 10.4
03/03:30pm NE 10 14 - - - - 10 Partly cloudy - 16.6 1009.5 10.2
03/03:00pm NE 12 16 - - - - 10 Cloudy Showers 16.6 1009.8 10.0
03/02:30pm ENE 13 19 - - - - 10 Partly cloudy - 16.6 1009.8 10.0
03/02:12pm NE 13 20 - - - - 8 Partly cloudy - 16.6 1010.1 10.0
03/02:00pm ENE 13 20 - - - - 5 Partly cloudy - 16.5 1010.2 9.6
03/01:54pm ENE 14 19 - - - - 5 Partly cloudy - 16.5 1010.2 9.4
03/01:34pm ENE 13 20 - - - - 6 Partly cloudy - 16.1 1010.5 8.4
03/01:30pm ENE 13 22 - - - - 7 Partly cloudy - 16.0 1010.7 8.2
03/01:08pm E 15 23 - - - - 5 Cloudy - 16.0 1010.3 4.4
03/01:00pm E 16 23 - - - - 10 Partly cloudy - 16.1 1010.3 2.8
03/12:45pm E 17 22 - - - - 10 Partly cloudy - 16.1 1009.8 2.4
03/12:30pm E 15 20 - - - - 10 Partly cloudy - 16.1 1010.0 2.4
03/12:00pm ESE 16 21 - - - - 10 Cloudy Showers 16.2 1010.5 2.4
03/11:30am ESE 11 15 - - - - 10 Mostly clear - 16.2 1011.4 2.0
03/11:00am ESE 13 18 - - - - 10 Partly cloudy - 16.5 1011.9 1.8
03/10:59am ESE 13 18 - - - - 10 Partly cloudy - 16.4 1011.9 1.8
03/10:30am ESE 14 19 - - - - 10 Partly cloudy - 16.0 1012.5 1.8
03/10:00am ESE 15 20 - - - - 10 Partly cloudy - 15.8 1012.9 1.8
03/09:30am E 14 19 - - - - 10 Partly cloudy - 15.7 1013.5 1.2
03/09:22am E 13 17 - - - - 10 Partly cloudy - 15.7 1013.7 1.0
03/09:00am E 12 14 - - - - 10 Cloudy Rain 15.7 1014.2 11.8
03/08:30am E 9 13 - - - - 9 Partly cloudy - 15.8 1014.5 10.8
03/08:14am E 7 10 - - - - 8 Partly cloudy - 15.8 1014.5 10.2
03/08:00am ENE 5 7 - - - - 5 Partly cloudy - 15.9 1014.4 8.8
03/07:58am ENE 4 7 - - - - 5 Cloudy - 15.9 1014.4 8.8
03/07:30am ESE 4 6 - - - - 10 Partly cloudy - 15.9 1013.8 6.8
03/07:00am ESE 5 8 - - - - 10 Cloudy - 16.0 1013.1 5.4
03/06:30am ESE 12 15 - - - - 10 Partly cloudy - 16.1 1012.8 5.2
03/06:00am ESE 11 14 - - - - 10 Cloudy Rain 15.7 1013.2 5.0
03/05:30am ESE 12 15 - - - - 10 Partly cloudy - 15.8 1013.6 4.6
03/05:00am ESE 9 12 - - - - 10 Mostly clear - 15.6 1013.9 3.6
03/04:30am ESE 5 7 - - - - 9 Partly cloudy - 15.6 1014.3 2.6
03/04:00am ESE 4 8 - - - - 10 Mostly clear - 16.9 1014.5 1.0
03/03:30am ESE 8 11 - - - - 10 Partly cloudy - 16.5 1014.5 0.8
03/03:00am ESE 7 9 - - - - 10 Cloudy Showers 16.4 1014.6 0.8
03/02:30am S 2 4 - - - - 10 Cloudy - 16.2 1014.8 0.8
03/02:00am ESE 7 10 - - - - 10 Cloudy - 16.6 1015.0 0.8
03/01:30am SE 8 10 - - - - 10 Cloudy - 16.3 1015.0 0.8
03/01:00am SE 7 9 - - - - 10 Cloudy - 16.4 1015.3 0.8
03/12:30am ESE 10 13 - - - - 10 Cloudy - 16.9 1015.6 0.4
03/12:00am ESE 15 19 - - - - 10 Cloudy Rain 17.0 1015.6 0.4
 
Date/Time
EST
Wind Sea
Height
m
Swell Vis
km
Cloud Weather Temp
°C
Press
MSL
hPa
Rain since
9am
mm
Dir  Spd
kts
Gust
kts
Height
m
Period
s
Dir
02/11:30pm ESE 14 19 - - - - 10 Partly cloudy - 16.9 1015.8 0.4
02/11:00pm ESE 16 20 - - - - 10 Cloudy - 17.4 1015.8 0.4
02/10:30pm ESE 13 16 - - - - 10 Cloudy - 17.3 1016.2 0.4
02/10:00pm E 13 17 - - - - 10 Cloudy - 17.3 1016.4 0.4
02/09:30pm ESE 14 18 - - - - 10 Cloudy - 17.2 1016.4 0.4
02/09:00pm E 15 18 - - - - 10 Cloudy - 17.3 1016.2 0.4
02/08:30pm E 16 21 - - - - 10 Cloudy - 17.2 1016.1 0.4
02/08:00pm E 14 19 - - - - 10 Partly cloudy - 17.0 1016.2 0.4
02/07:30pm E 16 22 - - - - 10 Partly cloudy - 17.1 1016.2 0.4
02/07:00pm ESE 13 17 - - - - 10 Partly cloudy - 16.8 1016.4 0.4
02/06:30pm ESE 14 19 - - - - 10 Cloudy - 16.8 1016.3 0.4
02/06:00pm ESE 14 19 - - - - 10 Cloudy - 16.6 1016.1 0.4
02/05:30pm ESE 14 19 - - - - 10 Partly cloudy - 16.8 1016.0 0.4
02/05:00pm ESE 15 19 - - - - 10 Cloudy - 16.7 1016.0 0.4
02/04:30pm ESE 15 20 - - - - 10 Cloudy - 16.7 1016.0 0.4
02/04:00pm ESE 13 17 - - - - 10 Partly cloudy - 16.7 1016.5 0.4
02/03:30pm E 9 13 - - - - 10 Cloudy - 17.0 1016.8 0.0
02/03:00pm E 13 18 - - - - 10 Cloudy - 17.4 1016.8 0.0
02/02:30pm E 14 20 - - - - 10 Mostly clear - 17.4 1016.8 0.0
02/02:00pm E 14 19 - - - - 10 Partly cloudy - 18.3 1017.0 0.0
02/01:30pm ESE 15 20 - - - - 10 Cloudy - 17.7 1017.3 0.0
02/01:00pm E 15 18 - - - - 10 Partly cloudy - 18.1 1017.7 0.0
02/12:30pm E 15 21 - - - - 10 - - 18.3 1018.1 0.0
02/12:00pm E 14 18 - - - - 10 Cloudy - 18.3 1018.7 0.0
02/11:30am E 13 17 - - - - 10 Partly cloudy - 18.0 1019.2 0.0
02/11:07am E 13 18 - - - - 10 Mostly clear - 18.2 1019.5 0.0
02/11:00am E 13 17 - - - - 10 Partly cloudy - 18.3 1019.5 0.0
02/10:30am E 13 18 - - - - 10 Cloudy - 17.8 1019.8 0.0
02/10:00am E 13 18 - - - - 10 Cloudy - 17.8 1019.9 0.0
02/09:30am E 13 18 - - - - 10 Cloudy - 17.4 1020.1 0.0
02/09:00am E 15 19 - - - - 10 Cloudy - 17.5 1020.3 0.0
02/08:39am E 14 20 - - - - 10 Partly cloudy - 17.2 1020.3 0.0
02/08:30am E 14 19 - - - - 10 Mostly clear - 17.2 1020.3 0.0
02/08:00am E 13 17 - - - - 10 Partly cloudy - 16.9 1020.1 0.0
02/07:30am ESE 12 18 - - - - 10 Partly cloudy - 16.5 1019.9 0.0
02/07:00am ESE 13 16 - - - - 10 - - 16.1 1019.9 0.0
02/06:30am ESE 13 21 - - - - 10 Mostly clear - 16.3 1019.9 0.0
02/06:00am ESE 11 16 - - - - 10 Cloudy - 16.0 1020.1 0.0
02/05:30am ESE 6 8 - - - - 10 Cloudy - 15.3 1020.2 0.0
02/05:00am SE 6 8 - - - - 10 Partly cloudy - 15.1 1020.1 0.0
02/04:30am SE 6 9 - - - - 10 Partly cloudy - 14.6 1020.1 0.0
02/04:00am SE 3 6 - - - - 10 Partly cloudy - 13.0 1020.2 0.0
02/03:30am S 1 4 - - - - 10 Mostly clear - 12.1 1020.4 0.0
02/03:00am S 4 5 - - - - 10 Mostly clear - 12.6 1020.7 0.0
02/02:30am SE 5 7 - - - - 10 Mostly clear - 12.3 1020.9 0.0
02/02:00am S 3 4 - - - - 10 Partly cloudy - 11.1 1021.4 0.0
02/01:30am S 3 4 - - - - 10 Partly cloudy - 10.9 1021.5 0.0
02/01:00am SSW 3 4 - - - - 10 Partly cloudy - 10.0 1021.8 0.0
02/12:30am SSW 3 4 - - - - 10 - - 9.8 1021.9 0.0
02/12:00am SW 4 5 - - - - 10 Mostly clear - 10.1 1022.1 0.0
 
Date/Time
EST
Wind Sea
Height
m
Swell Vis
km
Cloud Weather Temp
°C
Press
MSL
hPa
Rain since
9am
mm
Dir  Spd
kts
Gust
kts
Height
m
Period
s
Dir
01/11:30pm WSW 4 5 - - - - 10 - - 10.2 1022.2 0.0
01/11:00pm WSW 5 6 - - - - 10 - - 10.7 1022.5 0.0
01/10:30pm W 4 5 - - - - 10 Mostly clear - 11.0 1022.8 0.0
01/10:00pm W 2 4 - - - - 10 Partly cloudy - 11.9 1022.8 0.0
01/09:30pm WSW 4 6 - - - - 10 Partly cloudy - 11.9 1022.9 0.0
01/09:00pm WNW 3 5 - - - - 10 Partly cloudy - 12.3 1022.8 0.0
01/08:30pm WSW 3 5 - - - - 10 Partly cloudy - 13.0 1022.7 0.0
01/08:00pm SSE 4 5 - - - - 10 Partly cloudy - 13.5 1022.6 0.0

Other formats

Comma delimited format used in spreadsheet applications
http://www.bom.gov.au/fwo/IDV60701/IDV60701.95957.axf

JavaScript Object Notation format (JSON) in row-major order
http://www.bom.gov.au/fwo/IDV60701/IDV60701.95957.json

Data quality

Most of these data are generated automatically and are frequently updated. Quality checks on data are not normally performed. It is possible for incorrect values to appear. Refer to information at About Latest Weather Observations and please check the disclaimer before using these data.